Terminal Aerodrome Forecast
Issued by NWS

Home | Current Version | Previous Version | Text Only | Print | Product List | Glossary On
Versions: 1 2 3 4 5 6 7 8 9 10 11 12 13 14 15 16 17 18 19 20 21 22 23 24 25 26 27 28 29 30 31 32 33 34
000
FTUS41 KOKX 270237 AAB
TAFTEB
TAF AMD
KTEB 270237Z 2703/2724 36008KT 4SM RA BR FEW007 BKN015
     FM270500 35006KT 4SM -RA BR BKN015
     FM271400 34006KT 6SM -RA BKN015
     FM271600 34007KT P6SM SCT015 BKN080=

USA.gov is the U.S. government's official web portal to all federal, state and local government web resources and services.